createdAt,value
2023-03-27T04:36:09.262Z,39.50
2023-03-27T04:38:40.435Z,39.60
2023-03-27T04:41:09.766Z,39.50
2023-03-27T04:43:41.254Z,39.50
2023-03-27T04:46:10.337Z,39.60
2023-03-27T04:48:39.615Z,39.70
2023-03-27T04:51:13.155Z,39.90
2023-03-27T04:53:44.029Z,40.10
2023-03-27T04:56:13.097Z,40.20
2023-03-27T04:58:42.477Z,40.20
2023-03-27T05:01:11.477Z,40.10
2023-03-27T05:03:41.607Z,40.20
2023-03-27T05:06:11.311Z,40.20
2023-03-27T05:08:40.287Z,40.20
2023-03-27T05:11:09.891Z,40.00
2023-03-27T05:13:39.688Z,40.10
2023-03-27T05:16:11.136Z,40.20
2023-03-27T05:18:41.959Z,40.20
2023-03-27T05:21:11.940Z,40.30
2023-03-27T05:23:40.890Z,40.40
2023-03-27T05:26:10.010Z,40.50
2023-03-27T05:28:41.023Z,40.60
2023-03-27T05:31:19.093Z,40.70
2023-03-27T05:33:48.344Z,40.70
2023-03-27T05:36:17.539Z,40.70
2023-03-27T05:38:47.111Z,40.70
2023-03-27T05:41:17.455Z,40.90
2023-03-27T05:43:47.109Z,40.90
2023-03-27T05:46:21.386Z,40.90
2023-03-27T05:48:50.943Z,41.00
2023-03-27T05:51:19.969Z,41.00
2023-03-27T05:53:48.914Z,40.90
2023-03-27T05:56:18.030Z,40.90
2023-03-27T05:58:46.997Z,40.80
2023-03-27T06:01:16.068Z,40.80
2023-03-27T06:03:45.178Z,40.90
2023-03-27T06:06:14.888Z,40.90
2023-03-27T06:08:43.826Z,41.00
2023-03-27T06:11:14.061Z,41.10
2023-03-27T06:13:43.921Z,41.00
2023-03-27T06:16:13.216Z,41.00
2023-03-27T06:18:42.540Z,41.00
2023-03-27T06:21:11.647Z,41.00
2023-03-27T06:23:40.693Z,41.00
2023-03-27T06:26:09.755Z,41.00
2023-03-27T06:28:40.405Z,41.00
2023-03-27T06:31:10.070Z,41.00
2023-03-27T06:33:41.939Z,41.10
2023-03-27T06:36:11.367Z,41.10
2023-03-27T06:38:40.406Z,41.10
2023-03-27T06:41:09.345Z,41.20
2023-03-27T06:43:38.257Z,41.30
2023-03-27T06:46:08.104Z,41.30
2023-03-27T06:48:37.924Z,41.40
2023-03-27T06:51:07.732Z,41.50
2023-03-27T06:53:38.236Z,41.50
2023-03-27T06:56:08.011Z,41.50
2023-03-27T06:58:37.737Z,41.50
2023-03-27T07:01:06.998Z,41.40
2023-03-27T07:03:36.029Z,41.30
2023-03-27T07:06:05.186Z,41.20
2023-03-27T07:08:34.277Z,41.20
2023-03-27T07:13:37.400Z,41.10
2023-03-27T07:16:07.445Z,41.20
2023-03-27T07:18:37.440Z,41.10
2023-03-27T07:21:08.893Z,41.10
2023-03-27T07:23:37.938Z,41.10
2023-03-27T07:26:07.248Z,41.10
2023-03-27T07:28:39.538Z,41.10
2023-03-27T07:31:26.008Z,41.20
2023-03-27T07:34:00.264Z,41.10
2023-03-27T07:36:30.000Z,41.10
2023-03-27T07:38:58.956Z,41.00
2023-03-27T07:41:28.075Z,40.90
2023-03-27T07:43:58.164Z,40.80
2023-03-27T07:46:27.731Z,40.80
2023-03-27T07:48:58.018Z,40.80
2023-03-27T07:51:27.087Z,40.80
2023-03-27T07:53:59.627Z,40.80
2023-03-27T07:56:29.370Z,40.80
2023-03-27T07:58:58.382Z,40.60
2023-03-27T08:01:27.634Z,40.60
2023-03-27T08:03:58.512Z,40.50
2023-03-27T08:06:28.486Z,40.50
2023-03-27T08:08:58.232Z,40.50
2023-03-27T08:11:30.831Z,40.50
2023-03-27T08:14:01.281Z,40.50
2023-03-27T08:16:30.782Z,40.50
2023-03-27T08:19:01.397Z,40.40
2023-03-27T08:21:35.941Z,40.20
2023-03-27T08:24:05.969Z,40.00
2023-03-27T08:26:35.033Z,39.80
2023-03-27T08:29:04.839Z,39.70
2023-03-27T08:31:37.046Z,39.70
2023-03-27T08:34:06.209Z,39.70
2023-03-27T08:36:35.761Z,39.70
2023-03-27T08:39:05.231Z,39.70
2023-03-27T08:41:49.944Z,39.80
2023-03-27T08:44:22.784Z,39.80
2023-03-27T08:47:09.432Z,39.70
2023-03-27T08:49:43.551Z,39.60
2023-03-27T08:52:20.749Z,39.50
2023-03-27T08:55:08.835Z,39.40
2023-03-27T08:57:38.599Z,39.30
2023-03-27T09:00:16.118Z,39.30
2023-03-27T09:02:54.479Z,39.30
2023-03-27T09:05:32.087Z,39.30
2023-03-27T09:08:33.284Z,39.20
2023-03-27T09:11:20.597Z,39.20
2023-03-27T09:13:53.182Z,39.20
2023-03-27T09:16:35.875Z,39.10
2023-03-27T09:19:28.330Z,39.10
2023-03-27T09:22:03.812Z,39.10
2023-03-27T09:24:37.589Z,39.00
2023-03-27T09:27:16.571Z,38.90
2023-03-27T09:29:49.268Z,38.90
2023-03-27T09:32:18.536Z,38.80
2023-03-27T09:34:54.285Z,38.80
2023-03-27T09:37:23.487Z,38.80
2023-03-27T09:39:54.214Z,38.70
2023-03-27T09:42:35.002Z,38.60
2023-03-27T09:45:11.031Z,38.60
2023-03-27T09:47:52.268Z,38.50
2023-03-27T09:50:42.671Z,38.40
2023-03-27T09:53:26.404Z,38.40
2023-03-27T09:55:57.623Z,38.30
2023-03-27T09:58:50.227Z,38.30
2023-03-27T10:01:35.656Z,38.20
2023-03-27T10:04:15.810Z,38.20
2023-03-27T10:06:49.183Z,38.10
2023-03-27T10:09:28.813Z,38.00
2023-03-27T10:12:09.153Z,38.00
2023-03-27T10:14:45.781Z,37.90
2023-03-27T10:17:40.979Z,37.90
2023-03-27T10:20:21.340Z,37.80
2023-03-27T10:23:04.945Z,37.70
2023-03-27T10:25:40.563Z,37.70
2023-03-27T10:28:31.116Z,37.60
2023-03-27T10:31:01.950Z,37.50
2023-03-27T10:33:37.730Z,37.50
2023-03-27T10:36:09.960Z,37.40
2023-03-27T10:38:43.143Z,37.40
2023-03-27T10:41:28.068Z,37.40
2023-03-27T10:43:59.309Z,37.30
2023-03-27T10:46:30.369Z,37.20
2023-03-27T10:49:20.564Z,37.20
2023-03-27T10:52:04.680Z,37.10
2023-03-27T10:54:55.037Z,37.10
2023-03-27T10:57:35.745Z,37.00
2023-03-27T11:00:21.195Z,36.90
2023-03-27T11:03:08.296Z,36.80
2023-03-27T11:05:54.915Z,36.80
2023-03-27T11:09:06.676Z,36.70
2023-03-27T11:11:43.901Z,36.60
2023-03-27T11:14:38.433Z,36.50
2023-03-27T11:17:10.187Z,36.50
2023-03-27T11:19:51.075Z,36.40
2023-03-27T11:22:33.384Z,36.30
2023-03-27T11:25:26.590Z,36.20
2023-03-27T11:28:20.337Z,36.10
2023-03-27T11:30:57.199Z,36.00
2023-03-27T11:33:49.250Z,35.90
2023-03-27T11:36:30.986Z,35.90
2023-03-27T11:39:24.642Z,35.80
2023-03-27T11:42:02.652Z,35.70
2023-03-27T11:44:31.609Z,35.70
2023-03-27T11:47:31.068Z,35.60
2023-03-27T11:50:27.810Z,35.50
2023-03-27T11:52:59.461Z,35.40
2023-03-27T11:55:40.781Z,35.30
2023-03-27T11:58:09.808Z,35.20
2023-03-27T12:01:03.420Z,35.20
2023-03-27T12:03:44.819Z,35.10
2023-03-27T12:06:17.560Z,35.10
2023-03-27T12:08:52.766Z,35.00
2023-03-27T12:11:23.424Z,34.90
2023-03-27T12:14:19.913Z,34.90
2023-03-27T12:17:05.070Z,34.80
2023-03-27T12:19:46.398Z,34.80
2023-03-27T12:22:41.459Z,34.70
2023-03-27T12:25:46.511Z,34.70
2023-03-27T12:28:38.295Z,34.60
2023-03-27T12:31:26.501Z,34.60
2023-03-27T12:34:15.818Z,34.60
2023-03-27T12:36:49.412Z,34.50
2023-03-27T12:39:25.586Z,34.50
2023-03-27T12:41:55.031Z,34.40
2023-03-27T12:44:53.633Z,34.40
2023-03-27T12:47:27.329Z,34.30
2023-03-27T12:50:12.973Z,34.30
2023-03-27T12:52:45.730Z,34.30
2023-03-27T12:55:20.488Z,34.20
2023-03-27T12:57:49.671Z,34.20
2023-03-27T13:00:26.695Z,34.10
2023-03-27T13:03:14.797Z,34.10
2023-03-27T13:06:13.818Z,34.00
2023-03-27T13:09:06.403Z,34.00
2023-03-27T13:11:50.984Z,34.00
2023-03-27T13:14:39.771Z,34.00
2023-03-27T13:17:18.208Z,33.90
2023-03-27T13:20:10.961Z,33.90
2023-03-27T13:22:55.328Z,33.80
2023-03-27T13:25:30.316Z,33.80
2023-03-27T13:28:26.341Z,33.80
2023-03-27T13:30:58.000Z,33.80
2023-03-27T13:33:32.840Z,33.70
2023-03-27T13:36:04.989Z,33.70
2023-03-27T13:38:53.842Z,33.70
2023-03-27T13:41:49.819Z,33.70
2023-03-27T13:44:29.337Z,33.60
2023-03-27T13:47:05.149Z,33.60
2023-03-27T13:49:51.100Z,33.60
2023-03-27T13:52:26.163Z,33.50
2023-03-27T13:55:29.189Z,33.40
2023-03-27T13:58:20.421Z,33.30
2023-03-27T14:01:26.391Z,33.20
2023-03-27T14:04:10.386Z,33.20
2023-03-27T14:07:16.505Z,33.10
2023-03-27T14:10:10.554Z,33.00
2023-03-27T14:12:55.276Z,32.90
2023-03-27T14:15:42.437Z,32.80
2023-03-27T14:18:40.573Z,32.80
2023-03-27T14:21:27.584Z,32.80
2023-03-27T14:24:23.682Z,32.70
2023-03-27T14:26:56.158Z,32.60
2023-03-27T14:29:25.184Z,32.60
2023-03-27T14:31:54.739Z,32.60
2023-03-27T14:34:35.319Z,32.50
2023-03-27T14:37:32.794Z,32.50
2023-03-27T14:40:02.367Z,32.50
2023-03-27T14:42:33.577Z,32.50
2023-03-27T14:45:25.034Z,32.50
2023-03-27T14:48:01.574Z,32.40
2023-03-27T14:50:32.748Z,32.40
2023-03-27T14:53:02.834Z,32.40
2023-03-27T14:55:35.634Z,32.30
2023-03-27T14:58:11.386Z,32.30
2023-03-27T15:00:42.552Z,32.30
2023-03-27T15:03:36.343Z,32.20
2023-03-27T15:06:18.196Z,32.20
2023-03-27T15:08:53.297Z,32.20
2023-03-27T15:11:25.020Z,32.10
2023-03-27T15:13:54.215Z,32.10
2023-03-27T15:16:26.521Z,32.00
2023-03-27T15:19:15.010Z,32.00
2023-03-27T15:22:00.464Z,32.00
2023-03-27T15:24:57.368Z,31.90
2023-03-27T15:27:29.821Z,31.80
2023-03-27T15:30:19.421Z,31.80
2023-03-27T15:32:54.410Z,31.80
2023-03-27T15:35:41.346Z,31.70
2023-03-27T15:38:15.347Z,31.70
2023-03-27T15:40:47.793Z,31.70
2023-03-27T15:43:17.539Z,31.70
2023-03-27T15:46:14.878Z,31.60
2023-03-27T15:48:46.768Z,31.60
2023-03-27T15:51:35.916Z,31.60
2023-03-27T15:54:32.951Z,31.60
2023-03-27T15:57:11.448Z,31.50
2023-03-27T15:59:52.451Z,31.50
2023-03-27T16:02:24.927Z,31.50
2023-03-27T16:04:59.372Z,31.50
2023-03-27T16:07:34.500Z,31.50
2023-03-27T16:10:08.101Z,31.40
2023-03-27T16:12:58.195Z,31.40
2023-03-27T16:15:33.082Z,31.40
2023-03-27T16:18:24.798Z,31.40
2023-03-27T16:20:53.847Z,31.40
2023-03-27T16:23:23.130Z,31.30
2023-03-27T16:25:52.383Z,31.30
2023-03-27T16:28:21.445Z,31.30
2023-03-27T16:30:51.100Z,31.30
2023-03-27T16:33:23.690Z,31.30
2023-03-27T16:35:53.370Z,31.20
2023-03-27T16:38:22.821Z,31.20
2023-03-27T16:40:52.105Z,31.20
2023-03-27T16:43:21.090Z,31.20
2023-03-27T16:45:50.659Z,31.20
2023-03-27T16:48:19.647Z,31.10
2023-03-27T16:50:48.586Z,31.10
2023-03-27T16:53:17.608Z,31.00
2023-03-27T16:55:47.556Z,31.00
2023-03-27T16:58:16.564Z,31.00
2023-03-27T17:00:45.586Z,31.00
2023-03-27T17:03:14.704Z,30.90
2023-03-27T17:05:45.243Z,30.90
2023-03-27T17:08:17.544Z,30.90
2023-03-27T17:10:47.869Z,30.80
2023-03-27T17:13:17.622Z,30.80
2023-03-27T17:15:50.060Z,30.80
2023-03-27T17:18:19.082Z,30.70
2023-03-27T17:20:48.060Z,30.60
2023-03-27T17:23:17.176Z,30.60
2023-03-27T17:25:47.095Z,30.60
2023-03-27T17:28:16.349Z,30.60
2023-03-27T17:30:53.031Z,30.50
2023-03-27T17:33:30.554Z,30.50
2023-03-27T17:35:59.835Z,30.50
2023-03-27T17:38:29.132Z,30.50
2023-03-27T17:40:58.107Z,30.50
2023-03-27T17:43:27.056Z,30.50
2023-03-27T17:45:56.263Z,30.40
2023-03-27T17:48:25.409Z,30.40
2023-03-27T17:51:07.595Z,30.40
2023-03-27T17:53:39.688Z,30.40
2023-03-27T17:56:09.691Z,30.50
2023-03-27T17:58:38.658Z,30.40
2023-03-27T18:01:22.244Z,30.40
2023-03-27T18:03:51.997Z,30.40
2023-03-27T18:06:21.244Z,30.40
2023-03-27T18:08:50.182Z,30.30
2023-03-27T18:11:19.358Z,30.30
2023-03-27T18:13:53.741Z,30.30
2023-03-27T18:16:24.183Z,30.20
2023-03-27T18:18:55.972Z,30.20
2023-03-27T18:21:25.582Z,30.20
2023-03-27T18:23:57.148Z,30.20
2023-03-27T18:26:26.471Z,30.10
2023-03-27T18:28:56.390Z,30.10
2023-03-27T18:31:25.779Z,30.00
2023-03-27T18:33:54.985Z,30.00
2023-03-27T18:36:24.222Z,30.00
2023-03-27T18:38:53.328Z,29.90
2023-03-27T18:41:22.353Z,29.90
2023-03-27T18:43:51.418Z,29.90
2023-03-27T18:46:20.628Z,29.80
2023-03-27T18:48:52.209Z,29.80
2023-03-27T18:51:22.152Z,29.80
2023-03-27T18:53:52.391Z,29.70
2023-03-27T18:56:21.441Z,29.70
2023-03-27T18:58:50.649Z,29.70
2023-03-27T19:01:19.723Z,29.60
2023-03-27T19:03:51.280Z,29.70
2023-03-27T19:06:21.362Z,29.60
2023-03-27T19:08:50.321Z,29.60
2023-03-27T19:11:20.085Z,29.50
2023-03-27T19:13:49.065Z,29.60
2023-03-27T19:16:18.119Z,29.50
2023-03-27T19:18:47.081Z,29.50
2023-03-27T19:21:17.480Z,29.50
2023-03-27T19:23:46.479Z,29.40
2023-03-27T19:26:18.552Z,29.40
2023-03-27T19:28:50.963Z,29.40
2023-03-27T19:31:20.011Z,29.40
2023-03-27T19:33:49.007Z,29.40
2023-03-27T19:36:18.311Z,29.40
2023-03-27T19:38:47.349Z,29.30
2023-03-27T19:41:16.531Z,29.30
2023-03-27T19:43:45.763Z,29.30
2023-03-27T19:46:16.637Z,29.30
2023-03-27T19:48:48.609Z,29.30
2023-03-27T19:51:17.550Z,29.30
2023-03-27T19:53:46.835Z,29.30
2023-03-27T19:56:15.922Z,29.20
2023-03-27T19:58:45.002Z,29.20
2023-03-27T20:01:14.314Z,29.20
2023-03-27T20:03:43.551Z,29.10
2023-03-27T20:06:18.618Z,29.20
2023-03-27T20:08:47.819Z,29.20
2023-03-27T20:11:16.841Z,29.20
2023-03-27T20:13:56.206Z,29.20
2023-03-27T20:16:28.465Z,29.10
2023-03-27T20:19:06.478Z,29.10
2023-03-27T20:21:38.778Z,29.10
2023-03-27T20:24:10.909Z,29.10
2023-03-27T20:26:41.643Z,29.10
2023-03-27T20:29:17.426Z,29.10
2023-03-27T20:31:46.594Z,29.10
2023-03-27T20:34:16.110Z,29.10
2023-03-27T20:36:45.177Z,29.00
2023-03-27T20:39:15.395Z,29.00
2023-03-27T20:41:44.594Z,29.00
2023-03-27T20:44:19.138Z,29.00
2023-03-27T20:46:52.991Z,29.00
2023-03-27T20:49:39.783Z,29.00
2023-03-27T20:52:11.475Z,29.00
2023-03-27T20:54:40.766Z,28.90
2023-03-27T20:57:10.563Z,28.90
2023-03-27T20:59:39.857Z,28.90
2023-03-27T21:02:08.972Z,28.90
2023-03-27T21:04:38.051Z,28.80
2023-03-27T21:07:10.768Z,28.80
2023-03-27T21:09:40.242Z,28.80
2023-03-27T21:12:10.467Z,28.70
2023-03-27T21:14:39.529Z,28.70
2023-03-27T21:17:08.985Z,28.60
2023-03-27T21:19:37.944Z,28.50
2023-03-27T21:22:06.919Z,28.50
2023-03-27T21:24:35.971Z,28.40
2023-03-27T21:27:05.049Z,28.30
2023-03-27T21:29:34.158Z,28.30
2023-03-27T21:32:03.246Z,28.30
2023-03-27T21:34:32.302Z,28.20
2023-03-27T21:37:03.692Z,28.20
2023-03-27T21:39:32.725Z,28.10
2023-03-27T21:42:01.909Z,28.10
2023-03-27T21:44:30.984Z,28.10
2023-03-27T21:47:00.104Z,28.00
2023-03-27T21:49:29.216Z,28.00
2023-03-27T21:51:58.240Z,27.90
2023-03-27T21:54:27.256Z,27.90
2023-03-27T21:56:56.512Z,27.90
2023-03-27T21:59:26.388Z,27.80
2023-03-27T22:01:55.676Z,27.80
2023-03-27T22:04:25.379Z,27.80
2023-03-27T22:06:54.703Z,27.70
2023-03-27T22:09:23.949Z,27.70
2023-03-27T22:11:52.951Z,27.70
2023-03-27T22:14:21.881Z,27.60
2023-03-27T22:16:50.952Z,27.60
2023-03-27T22:19:20.331Z,27.50
2023-03-27T22:21:49.333Z,27.50
2023-03-27T22:24:18.383Z,27.50
2023-03-27T22:26:47.325Z,27.40
2023-03-27T22:29:17.034Z,27.40
2023-03-27T22:31:45.999Z,27.40
2023-03-27T22:34:14.926Z,27.40
2023-03-27T22:36:43.971Z,27.40
2023-03-27T22:39:12.944Z,27.30
2023-03-27T22:41:42.093Z,27.30
2023-03-27T22:44:11.218Z,27.30
2023-03-27T22:46:40.222Z,27.30
2023-03-27T22:49:09.228Z,27.20
2023-03-27T22:51:38.301Z,27.20
2023-03-27T22:54:07.468Z,27.20
2023-03-27T22:56:36.534Z,27.10
2023-03-27T22:59:05.678Z,27.10
2023-03-27T23:01:34.679Z,27.00
2023-03-27T23:04:03.639Z,27.00
2023-03-27T23:06:32.806Z,27.00
2023-03-27T23:09:01.970Z,27.00
2023-03-27T23:11:31.228Z,27.00
2023-03-27T23:14:00.198Z,26.90
2023-03-27T23:16:29.180Z,26.90
2023-03-27T23:18:58.145Z,26.90
2023-03-27T23:21:27.126Z,26.80
2023-03-27T23:23:56.730Z,26.80
2023-03-27T23:26:25.657Z,26.80
2023-03-27T23:28:54.648Z,26.70
2023-03-27T23:31:23.981Z,26.70
2023-03-27T23:33:53.204Z,26.70
2023-03-27T23:36:24.992Z,26.70
2023-03-27T23:38:54.833Z,26.70
2023-03-27T23:41:23.951Z,26.70
2023-03-27T23:43:55.052Z,26.70
2023-03-27T23:46:24.065Z,26.70
2023-03-27T23:48:53.088Z,26.70
2023-03-27T23:51:22.269Z,26.70
2023-03-27T23:53:51.788Z,26.80
2023-03-27T23:56:20.732Z,26.80
2023-03-27T23:58:49.705Z,26.80
